createdAt,value
2019-02-10T00:03:53.355Z,95592.07
2019-02-10T00:06:25.697Z,95588.87
2019-02-10T00:09:12.062Z,95592.72
2019-02-10T00:11:42.706Z,95596.00
2019-02-10T00:14:13.544Z,95597.14
2019-02-10T00:16:57.075Z,95587.63
2019-02-10T00:19:42.632Z,95593.94
2019-02-10T00:22:31.859Z,95598.94
2019-02-10T00:25:02.222Z,95592.23
2019-02-10T00:27:46.230Z,95577.20
2019-02-10T00:30:16.613Z,95573.36
2019-02-10T00:32:47.059Z,95577.72
2019-02-10T00:35:36.813Z,95573.81
2019-02-10T00:38:07.333Z,95565.88
2019-02-10T00:43:58.493Z,95565.14
2019-02-10T00:46:47.994Z,95566.69
2019-02-10T00:49:18.429Z,95560.59
2019-02-10T00:52:01.717Z,95564.27
2019-02-10T00:57:51.074Z,95564.50
2019-02-10T01:00:23.721Z,95573.30
2019-02-10T01:02:54.113Z,95568.69
2019-02-10T01:05:24.540Z,95566.05
2019-02-10T01:08:14.246Z,95567.37
2019-02-10T01:13:41.060Z,95551.69
2019-02-10T01:16:23.408Z,95546.56
2019-02-10T01:22:06.426Z,95550.75
2019-02-10T01:24:56.064Z,95548.70
2019-02-10T01:30:28.849Z,95532.31
2019-02-10T01:32:59.449Z,95533.54
2019-02-10T01:35:29.520Z,95530.61
2019-02-10T01:37:59.798Z,95524.09
2019-02-10T01:40:41.685Z,95522.03
2019-02-10T01:43:11.987Z,95515.03
2019-02-10T01:46:01.651Z,95513.64
2019-02-10T01:48:32.370Z,95509.55
2019-02-10T01:51:04.693Z,95508.75
2019-02-10T01:53:34.999Z,95497.11
2019-02-10T01:56:16.496Z,95494.72
2019-02-10T01:58:46.809Z,95488.63
2019-02-10T02:01:17.111Z,95481.50
2019-02-10T02:04:07.186Z,95480.82
2019-02-10T02:06:39.342Z,95475.98
2019-02-10T02:12:20.664Z,95475.61
2019-02-10T02:15:11.531Z,95456.67
2019-02-10T02:17:42.309Z,95450.80
2019-02-10T02:20:31.718Z,95444.53
2019-02-10T02:23:01.991Z,95442.06
2019-02-10T02:28:52.494Z,95439.09
2019-02-10T02:31:41.927Z,95429.84
2019-02-10T02:34:12.337Z,95419.67
2019-02-10T02:37:07.333Z,95416.22
2019-02-10T02:39:38.052Z,95412.42
2019-02-10T02:42:09.169Z,95408.83
2019-02-10T02:44:51.054Z,95406.08
2019-02-10T02:47:33.415Z,95400.13
2019-02-10T02:52:52.882Z,95381.47
2019-02-10T02:55:23.650Z,95387.70
2019-02-10T02:57:53.946Z,95373.86
2019-02-10T03:00:24.316Z,95375.03
2019-02-10T03:02:54.653Z,95371.30
2019-02-10T03:05:29.043Z,95366.23
2019-02-10T03:07:59.260Z,95355.21
2019-02-10T03:10:41.762Z,95362.94
2019-02-10T03:13:33.899Z,95343.00
2019-02-10T03:16:04.227Z,95343.98
2019-02-10T03:18:34.766Z,95340.45
2019-02-10T03:21:17.254Z,95336.21
2019-02-10T03:23:59.521Z,95332.61
2019-02-10T03:26:29.817Z,95328.80
2019-02-10T03:29:00.122Z,95322.94
2019-02-10T03:37:02.062Z,95310.03
2019-02-10T03:40:10.377Z,95298.94
2019-02-10T03:43:01.305Z,95291.06
2019-02-10T03:45:34.244Z,95294.11
2019-02-10T03:48:15.863Z,95282.55
2019-02-10T03:51:08.210Z,95275.70
2019-02-10T03:56:28.991Z,95270.92
2019-02-10T03:59:11.178Z,95265.06
2019-02-10T04:01:41.431Z,95255.29
2019-02-10T04:04:11.756Z,95254.37
2019-02-10T04:06:54.167Z,95244.89
2019-02-10T04:09:36.230Z,95230.21
2019-02-10T04:12:06.903Z,95238.57
2019-02-10T04:14:48.628Z,95245.80
2019-02-10T04:17:30.919Z,95240.46
2019-02-10T04:20:01.211Z,95234.77
2019-02-10T04:22:31.902Z,95236.94
2019-02-10T04:25:14.366Z,95219.50
2019-02-10T04:27:44.610Z,95217.05
2019-02-10T04:33:34.002Z,95207.61
2019-02-10T04:36:04.296Z,95190.87
2019-02-10T04:41:38.787Z,95175.95
2019-02-10T04:44:11.080Z,95166.19
2019-02-10T04:46:53.292Z,95165.95
2019-02-10T04:49:43.515Z,95153.98
2019-02-10T04:52:29.953Z,95143.69
2019-02-10T04:55:00.503Z,95144.34
2019-02-10T04:58:17.082Z,95146.04
2019-02-10T05:00:47.516Z,95144.48
2019-02-10T05:03:18.126Z,95155.30
2019-02-10T05:06:08.072Z,95154.08
2019-02-10T05:08:38.406Z,95138.05
2019-02-10T05:11:27.806Z,95136.52
2019-02-10T05:14:09.675Z,95126.84
2019-02-10T05:16:39.956Z,95117.06
2019-02-10T05:19:10.253Z,95107.27
2019-02-10T05:21:59.590Z,95101.70
2019-02-10T05:24:29.864Z,95097.52
2019-02-10T05:27:00.039Z,95085.32
2019-02-10T05:29:44.497Z,95089.73
2019-02-10T05:32:14.856Z,95081.20
2019-02-10T05:34:47.341Z,95086.66
2019-02-10T05:37:29.595Z,95090.02
2019-02-10T05:40:11.878Z,95080.16
2019-02-10T05:42:43.146Z,95079.44
2019-02-10T05:48:19.675Z,95073.14
2019-02-10T05:50:50.366Z,95061.71
2019-02-10T05:53:31.982Z,95045.23
2019-02-10T05:56:02.379Z,95026.63
2019-02-10T05:58:32.947Z,95015.16
2019-02-10T06:01:42.324Z,95002.94
2019-02-10T06:04:12.753Z,94987.63
2019-02-10T06:06:44.980Z,94974.19
2019-02-10T06:09:15.299Z,94953.85
2019-02-10T06:12:18.125Z,94985.61
2019-02-10T06:17:30.832Z,95000.01
2019-02-10T06:20:32.307Z,94992.11
2019-02-10T06:23:02.683Z,94992.70
2019-02-10T06:25:33.950Z,94980.52
2019-02-10T06:28:23.604Z,94970.87
2019-02-10T06:31:13.217Z,94964.55
2019-02-10T06:33:43.490Z,94962.20
2019-02-10T06:36:32.861Z,94953.40
2019-02-10T06:41:44.387Z,94948.34
2019-02-10T06:47:17.088Z,94935.05
2019-02-10T06:49:59.295Z,94948.20
2019-02-10T06:52:29.723Z,94919.79
2019-02-10T06:55:00.969Z,94935.00
2019-02-10T06:57:49.189Z,94924.00
2019-02-10T07:00:42.247Z,94934.13
2019-02-10T07:06:54.152Z,94916.94
2019-02-10T07:10:02.540Z,94934.95
2019-02-10T07:12:52.341Z,94933.91
2019-02-10T07:16:01.080Z,94939.00
2019-02-10T07:19:09.783Z,94929.73
2019-02-10T07:21:44.219Z,94908.25
2019-02-10T07:24:59.104Z,94893.05
2019-02-10T07:30:43.527Z,94871.56
2019-02-10T07:33:53.303Z,94869.92
2019-02-10T07:36:52.493Z,94856.60
2019-02-10T07:40:06.763Z,94842.54
2019-02-10T07:43:18.142Z,94833.83
2019-02-10T07:46:29.310Z,94829.58
2019-02-10T07:49:23.040Z,94829.55
2019-02-10T07:55:39.568Z,94804.31
2019-02-10T07:58:48.287Z,94799.59
2019-02-10T08:01:41.892Z,94795.11
2019-02-10T08:04:50.581Z,94790.14
2019-02-10T08:08:02.047Z,94775.90
2019-02-10T08:10:44.072Z,94777.02
2019-02-10T08:13:52.681Z,94766.45
2019-02-10T08:16:40.448Z,94762.50
2019-02-10T08:20:22.998Z,94746.06
2019-02-10T08:23:28.327Z,94740.23
2019-02-10T08:26:45.184Z,94719.30
2019-02-10T08:33:25.851Z,94707.09
2019-02-10T08:36:34.598Z,94713.48
2019-02-10T08:39:44.394Z,94694.16
2019-02-10T08:42:54.225Z,94693.88
2019-02-10T08:46:02.720Z,94682.23
2019-02-10T08:49:39.526Z,94674.55
2019-02-10T08:52:51.938Z,94664.45
2019-02-10T09:02:01.052Z,94642.44
2019-02-10T09:04:32.953Z,94639.27
2019-02-10T09:10:26.067Z,94648.00
2019-02-10T09:16:13.751Z,94629.67
2019-02-10T09:24:29.900Z,94623.95
2019-02-10T09:27:11.790Z,94644.11
2019-02-10T09:29:42.076Z,94636.97
2019-02-10T09:35:09.681Z,94623.42
2019-02-10T09:38:32.685Z,94627.14
2019-02-10T09:44:43.458Z,94609.99
2019-02-10T09:47:13.752Z,94588.68
2019-02-10T09:49:56.162Z,94595.05
2019-02-10T09:52:40.128Z,94580.16
2019-02-10T09:55:12.431Z,94572.94
2019-02-10T10:00:58.902Z,94560.44
2019-02-10T10:09:19.327Z,94573.53
2019-02-10T10:18:18.674Z,94539.50
2019-02-10T10:21:33.844Z,94525.68
2019-02-10T10:24:06.607Z,94517.16
2019-02-10T10:29:39.561Z,94516.98
2019-02-10T10:35:42.242Z,94497.59
2019-02-10T10:38:06.016Z,94491.06
2019-02-10T10:46:51.642Z,94438.20
2019-02-10T10:49:47.730Z,94450.73
2019-02-10T10:55:34.947Z,94424.48
2019-02-10T11:08:25.580Z,94347.42
2019-02-10T11:14:41.132Z,94355.04
2019-02-10T11:17:43.347Z,94332.75
2019-02-10T11:20:54.826Z,94317.69
2019-02-10T11:24:14.197Z,94310.86
2019-02-10T11:29:57.337Z,94261.72
2019-02-10T11:35:45.101Z,94242.30
2019-02-10T11:57:21.904Z,94194.48
2019-02-10T12:03:03.046Z,94203.70
2019-02-10T12:05:54.932Z,94200.23
2019-02-10T12:08:34.990Z,94186.06
2019-02-10T12:14:32.718Z,94164.25
2019-02-10T12:20:13.724Z,94146.91
2019-02-10T12:23:03.395Z,94161.95
2019-02-10T12:26:13.710Z,94172.05
2019-02-10T12:34:52.536Z,94155.14
2019-02-10T12:37:40.651Z,94145.92
2019-02-10T12:40:27.843Z,94152.63
2019-02-10T12:43:09.561Z,94152.42
2019-02-10T12:49:05.322Z,94133.81
2019-02-10T12:52:16.379Z,94130.36
2019-02-10T12:58:23.196Z,94102.41
2019-02-10T13:04:14.129Z,94077.87
2019-02-10T13:06:55.648Z,94077.64
2019-02-10T13:09:45.205Z,94069.64
2019-02-10T13:12:35.844Z,94076.48
2019-02-10T13:15:29.061Z,94065.31
2019-02-10T13:30:53.366Z,94035.91
2019-02-10T13:33:34.812Z,94031.55
2019-02-10T13:36:08.189Z,94038.58
2019-02-10T13:39:59.532Z,94028.52
2019-02-10T13:41:56.609Z,94024.15
2019-02-10T13:44:46.312Z,94018.86
2019-02-10T13:53:09.108Z,93988.41
2019-02-10T13:56:39.082Z,93985.18
2019-02-10T13:59:49.282Z,93989.30
2019-02-10T14:08:52.075Z,93974.94
2019-02-10T14:14:44.157Z,93982.53
2019-02-10T14:17:38.083Z,93975.35
2019-02-10T14:20:48.597Z,93962.09
2019-02-10T14:26:46.448Z,93951.52
2019-02-10T14:29:34.075Z,93959.89
2019-02-10T14:32:02.872Z,93964.89
2019-02-10T14:34:45.126Z,93925.67
2019-02-10T14:37:17.068Z,93946.30
2019-02-10T14:46:37.572Z,93925.28
2019-02-10T14:52:10.052Z,93933.55
2019-02-10T14:55:02.194Z,93906.08
2019-02-10T14:58:01.136Z,93915.81
2019-02-10T15:01:08.712Z,93915.97
2019-02-10T15:09:13.815Z,93949.79
2019-02-10T15:11:55.813Z,93963.33
2019-02-10T15:14:33.079Z,93972.50
2019-02-10T15:17:24.773Z,93957.66
2019-02-10T15:19:55.224Z,93957.76
2019-02-10T15:22:56.033Z,93962.39
2019-02-10T15:26:02.407Z,93962.17
2019-02-10T15:28:59.344Z,93957.25
2019-02-10T15:31:14.599Z,93967.94
2019-02-10T15:34:06.509Z,93991.80
2019-02-10T15:36:55.658Z,93991.25
2019-02-10T15:40:22.956Z,93989.34
2019-02-10T15:43:04.797Z,93991.84
2019-02-10T15:46:03.212Z,94003.37
2019-02-10T15:48:37.361Z,93994.91
2019-02-10T15:51:09.925Z,93997.55
2019-02-10T15:53:40.168Z,93991.78
2019-02-10T15:56:33.522Z,93995.98
2019-02-10T15:59:03.765Z,93987.80
2019-02-10T16:04:57.946Z,93985.22
2019-02-10T16:07:41.401Z,93968.80
2019-02-10T16:11:05.349Z,93966.75
2019-02-10T16:16:31.863Z,93944.81
2019-02-10T16:19:31.736Z,93945.72
2019-02-10T16:25:15.983Z,93926.63
2019-02-10T16:28:37.895Z,93927.44
2019-02-10T16:34:44.066Z,93883.48
2019-02-10T16:40:37.206Z,93888.67
2019-02-10T16:43:09.160Z,93876.52
2019-02-10T16:45:58.785Z,93877.77
2019-02-10T16:51:26.256Z,93886.23
2019-02-10T16:54:36.239Z,93883.20
2019-02-10T16:57:27.078Z,93869.77
2019-02-10T17:00:55.250Z,93877.75
2019-02-10T17:11:14.435Z,93853.77
2019-02-10T17:13:56.953Z,93856.06
2019-02-10T17:16:50.502Z,93863.80
2019-02-10T17:25:21.097Z,93866.26
2019-02-10T17:28:03.358Z,93864.98
2019-02-10T17:30:52.810Z,93865.95
2019-02-10T17:33:23.600Z,93878.86
2019-02-10T17:36:07.968Z,93883.67
2019-02-10T17:38:59.143Z,93886.38
2019-02-10T17:44:39.694Z,93884.35
2019-02-10T17:53:05.652Z,93889.39
2019-02-10T17:56:06.631Z,93889.39
2019-02-10T17:59:30.292Z,93903.95
2019-02-10T18:07:30.710Z,93915.36
2019-02-10T18:10:13.150Z,93920.39
2019-02-10T18:12:43.538Z,93918.45
2019-02-10T18:16:29.974Z,93927.02
2019-02-10T18:19:19.269Z,93934.11
2019-02-10T18:22:08.799Z,93926.73
2019-02-10T18:25:16.230Z,93930.22
2019-02-10T18:28:13.400Z,93933.94
2019-02-10T18:30:58.242Z,93944.59
2019-02-10T18:33:56.868Z,93949.56
2019-02-10T18:40:18.788Z,93951.75
2019-02-10T18:43:30.289Z,93954.44
2019-02-10T18:49:48.948Z,93948.61
2019-02-10T18:52:57.242Z,93939.08
2019-02-10T18:55:49.228Z,93943.59
2019-02-10T18:58:36.423Z,93956.30
2019-02-10T19:01:29.017Z,93959.62
2019-02-10T19:04:28.264Z,93953.27
2019-02-10T19:07:25.225Z,93952.43
2019-02-10T19:13:51.380Z,93947.97
2019-02-10T19:17:11.617Z,93949.56
2019-02-10T19:26:06.343Z,93934.67
2019-02-10T19:28:58.633Z,93932.86
2019-02-10T19:32:25.985Z,93948.53
2019-02-10T19:35:18.002Z,93950.45
2019-02-10T19:47:54.933Z,93977.27
2019-02-10T19:50:39.235Z,93989.95
2019-02-10T19:56:36.721Z,93987.95
2019-02-10T20:02:41.389Z,94020.02
2019-02-10T20:05:31.402Z,94030.08
2019-02-10T20:08:32.036Z,94028.80
2019-02-10T20:14:47.790Z,94049.20
2019-02-10T20:21:04.873Z,94043.74
2019-02-10T20:26:44.229Z,94041.53
2019-02-10T20:29:35.095Z,94037.86
2019-02-10T20:32:18.282Z,94033.90
2019-02-10T20:35:20.373Z,94042.64
2019-02-10T20:37:56.397Z,94039.46
2019-02-10T20:40:40.561Z,94029.72
2019-02-10T20:44:24.819Z,94053.55
2019-02-10T20:46:59.781Z,94052.48
2019-02-10T20:49:51.219Z,94052.48
2019-02-10T20:52:46.219Z,94066.24
2019-02-10T20:55:34.794Z,94082.39
2019-02-10T20:58:27.095Z,94090.59
2019-02-10T21:04:22.446Z,94110.75
2019-02-10T21:07:12.114Z,94119.80
2019-02-10T21:09:54.085Z,94121.70
2019-02-10T21:12:45.119Z,94139.72
2019-02-10T21:15:34.212Z,94146.86
2019-02-10T21:18:23.754Z,94134.19
2019-02-10T21:24:21.403Z,94139.52
2019-02-10T21:30:03.355Z,94143.73
2019-02-10T21:36:01.036Z,94138.71
2019-02-10T21:39:02.707Z,94138.44
2019-02-10T21:45:22.175Z,94168.33
2019-02-10T21:47:57.713Z,94160.14
2019-02-10T21:50:27.958Z,94151.95
2019-02-10T21:52:58.313Z,94145.87
2019-02-10T21:55:49.325Z,94154.85
2019-02-10T22:01:24.660Z,94182.59
2019-02-10T22:04:16.442Z,94166.48
2019-02-10T22:06:48.731Z,94157.50
2019-02-10T22:12:40.496Z,94160.94
2019-02-10T22:15:52.286Z,94151.41
2019-02-10T22:18:26.974Z,94145.86
2019-02-10T22:21:17.989Z,94145.33
2019-02-10T22:26:50.333Z,94173.61
2019-02-10T22:32:10.021Z,94149.05
2019-02-10T22:37:48.781Z,94145.86
2019-02-10T22:40:36.452Z,94150.88
2019-02-10T22:46:11.028Z,94159.61
2019-02-10T22:48:53.281Z,94142.97
2019-02-10T22:51:24.489Z,94141.11
2019-02-10T22:53:55.164Z,94129.48
2019-02-10T22:57:13.903Z,94125.25
2019-02-10T22:59:45.455Z,94128.70
2019-02-10T23:02:21.256Z,94137.14
2019-02-10T23:05:11.002Z,94135.05
2019-02-10T23:07:43.744Z,94142.17
2019-02-10T23:10:45.181Z,94143.47
2019-02-10T23:13:17.498Z,94160.67
2019-02-10T23:25:07.393Z,94151.67
2019-02-10T23:28:03.747Z,94151.16
2019-02-10T23:30:34.122Z,94145.61
2019-02-10T23:33:16.232Z,94140.59
2019-02-10T23:36:25.932Z,94148.25
2019-02-10T23:38:56.261Z,94149.03
2019-02-10T23:41:45.670Z,94154.05
2019-02-10T23:44:34.876Z,94158.03
2019-02-10T23:47:05.195Z,94155.39
2019-02-10T23:49:51.746Z,94163.56
2019-02-10T23:52:22.027Z,94173.86
2019-02-10T23:54:52.544Z,94187.34
2019-02-10T23:57:34.534Z,94195.28
